createdAt,value
2018-10-05T00:01:25.349Z,99.90
2018-10-05T00:03:55.489Z,99.90
2018-10-05T00:06:25.677Z,99.90
2018-10-05T00:08:55.801Z,99.90
2018-10-05T00:11:26.019Z,99.90
2018-10-05T00:13:56.187Z,99.90
2018-10-05T00:16:26.337Z,99.90
2018-10-05T00:18:56.485Z,99.90
2018-10-05T00:21:26.675Z,99.90
2018-10-05T00:23:56.853Z,99.90
2018-10-05T00:26:27.102Z,99.90
2018-10-05T00:28:57.315Z,99.90
2018-10-05T00:31:27.544Z,99.90
2018-10-05T00:33:57.677Z,99.90
2018-10-05T00:36:27.890Z,99.90
2018-10-05T00:38:58.000Z,99.90
2018-10-05T00:41:28.139Z,99.90
2018-10-05T00:43:58.310Z,99.90
2018-10-05T00:46:28.538Z,99.90
2018-10-05T00:48:58.712Z,99.90
2018-10-05T00:51:29.220Z,99.90
2018-10-05T00:53:59.336Z,99.90
2018-10-05T00:56:29.465Z,99.90
2018-10-05T00:58:59.665Z,99.90
2018-10-05T01:01:29.841Z,99.90
2018-10-05T01:04:00.082Z,99.90
2018-10-05T01:06:30.224Z,99.90
2018-10-05T01:09:01.249Z,99.90
2018-10-05T01:11:31.494Z,99.90
2018-10-05T01:14:01.650Z,99.90
2018-10-05T01:16:31.768Z,99.90
2018-10-05T01:19:02.011Z,99.90
2018-10-05T01:21:32.184Z,99.90
2018-10-05T01:24:02.305Z,99.90
2018-10-05T01:26:32.461Z,99.90
2018-10-05T01:29:02.630Z,99.90
2018-10-05T01:31:32.774Z,99.90
2018-10-05T01:34:02.997Z,99.90
2018-10-05T01:36:33.233Z,99.90
2018-10-05T01:39:03.489Z,99.90
2018-10-05T01:41:33.799Z,99.90
2018-10-05T01:44:03.964Z,99.90
2018-10-05T01:46:34.160Z,99.90
2018-10-05T01:49:04.488Z,99.90
2018-10-05T01:51:35.853Z,99.90
2018-10-05T01:54:06.775Z,99.90
2018-10-05T01:56:37.072Z,99.90
2018-10-05T01:59:07.208Z,99.90
2018-10-05T02:01:37.350Z,99.90
2018-10-05T02:04:07.474Z,99.90
2018-10-05T02:06:37.589Z,99.90
2018-10-05T02:09:07.812Z,99.90
2018-10-05T02:11:37.928Z,99.90
2018-10-05T02:14:08.055Z,99.90
2018-10-05T02:16:38.194Z,99.90
2018-10-05T02:19:08.301Z,99.90
2018-10-05T02:21:38.457Z,99.90
2018-10-05T02:24:08.661Z,99.90
2018-10-05T02:26:38.846Z,99.90
2018-10-05T02:29:08.985Z,99.90
2018-10-05T02:31:39.097Z,99.90
2018-10-05T02:34:09.228Z,99.90
2018-10-05T02:36:39.337Z,99.90
2018-10-05T02:39:12.257Z,99.90
2018-10-05T02:41:42.902Z,99.90
2018-10-05T02:44:12.960Z,99.90
2018-10-05T02:46:43.217Z,99.90
2018-10-05T02:49:13.351Z,99.90
2018-10-05T02:51:43.508Z,99.90
2018-10-05T02:54:13.626Z,99.90
2018-10-05T02:56:43.780Z,99.90
2018-10-05T02:59:14.297Z,99.90
2018-10-05T03:02:01.240Z,99.90
2018-10-05T03:04:31.332Z,99.90
2018-10-05T03:07:02.503Z,99.90
2018-10-05T03:09:33.332Z,99.90
2018-10-05T03:12:06.604Z,99.90
2018-10-05T03:14:36.697Z,99.90
2018-10-05T03:17:06.892Z,99.90
2018-10-05T03:19:37.061Z,99.90
2018-10-05T03:22:07.202Z,99.90
2018-10-05T03:24:37.401Z,99.90
2018-10-05T03:27:07.558Z,99.90
2018-10-05T03:29:37.737Z,99.90
2018-10-05T03:32:08.099Z,99.90
2018-10-05T03:34:38.668Z,99.90
2018-10-05T03:37:09.068Z,99.90
2018-10-05T03:39:39.552Z,99.90
2018-10-05T03:42:09.818Z,99.90
2018-10-05T03:44:40.487Z,99.90
2018-10-05T03:47:11.250Z,99.90
2018-10-05T03:49:41.436Z,99.90
2018-10-05T03:52:11.859Z,99.90
2018-10-05T03:54:42.270Z,99.90
2018-10-05T03:57:12.633Z,99.90
2018-10-05T03:59:43.061Z,99.90
2018-10-05T04:02:13.529Z,99.90
2018-10-05T04:04:44.039Z,99.90
2018-10-05T04:07:14.381Z,99.90
2018-10-05T04:09:44.893Z,99.90
2018-10-05T04:12:15.536Z,99.90
2018-10-05T04:14:46.008Z,99.90
2018-10-05T04:17:16.397Z,99.90
2018-10-05T04:19:46.866Z,99.90
2018-10-05T04:22:22.320Z,99.90
2018-10-05T04:24:52.800Z,99.90
2018-10-05T04:27:23.185Z,99.90
2018-10-05T04:29:53.975Z,99.90
2018-10-05T04:32:24.288Z,99.90
2018-10-05T04:34:55.043Z,99.90
2018-10-05T04:37:25.912Z,99.90
2018-10-05T04:39:56.437Z,99.90
2018-10-05T04:42:26.965Z,99.90
2018-10-05T04:44:57.241Z,99.90
2018-10-05T04:47:27.696Z,99.90
2018-10-05T04:49:58.098Z,99.90
2018-10-05T04:52:28.686Z,99.90
2018-10-05T04:54:59.126Z,99.90
2018-10-05T04:57:29.652Z,99.90
2018-10-05T04:59:59.940Z,99.90
2018-10-05T05:02:30.361Z,99.90
2018-10-05T05:05:00.684Z,99.90
2018-10-05T05:07:31.216Z,99.90
2018-10-05T05:10:01.508Z,99.90
2018-10-05T05:12:32.778Z,99.90
2018-10-05T05:15:03.038Z,99.90
2018-10-05T05:17:33.340Z,99.90
2018-10-05T05:20:03.998Z,99.90
2018-10-05T05:22:34.449Z,99.90
2018-10-05T05:25:04.866Z,99.90
2018-10-05T05:27:35.068Z,99.90
2018-10-05T05:30:05.688Z,99.90
2018-10-05T05:32:36.548Z,99.90
2018-10-05T05:35:07.599Z,99.90
2018-10-05T05:37:39.384Z,99.90
2018-10-05T05:40:12.032Z,99.90
2018-10-05T05:42:44.143Z,99.90
2018-10-05T05:45:16.238Z,99.90
2018-10-05T05:47:50.049Z,99.90
2018-10-05T05:50:21.700Z,99.90
2018-10-05T05:52:53.275Z,99.90
2018-10-05T05:55:25.674Z,99.90
2018-10-05T05:57:57.140Z,99.90
2018-10-05T06:00:28.769Z,99.90
2018-10-05T06:03:00.974Z,99.90
2018-10-05T06:05:32.863Z,99.90
2018-10-05T06:08:13.816Z,99.90
2018-10-05T06:10:45.385Z,99.90
2018-10-05T06:13:16.378Z,99.90
2018-10-05T06:15:47.937Z,99.90
2018-10-05T06:18:20.087Z,99.90
2018-10-05T06:20:51.039Z,99.90
2018-10-05T06:23:22.830Z,99.90
2018-10-05T06:25:54.339Z,99.90
2018-10-05T06:28:25.548Z,99.90
2018-10-05T06:30:57.115Z,99.90
2018-10-05T06:33:29.087Z,99.90
2018-10-05T06:35:59.740Z,99.70
2018-10-05T06:38:30.286Z,99.10
2018-10-05T06:41:02.348Z,99.70
2018-10-05T06:43:32.751Z,98.50
2018-10-05T06:46:06.180Z,98.30
2018-10-05T06:48:40.405Z,97.50
2018-10-05T06:51:10.898Z,98.30
2018-10-05T06:53:41.264Z,98.10
2018-10-05T06:56:12.043Z,98.50
2018-10-05T06:58:44.263Z,96.90
2018-10-05T07:01:15.182Z,95.20
2018-10-05T07:03:46.549Z,94.30
2018-10-05T07:06:17.349Z,94.90
2018-10-05T07:08:59.550Z,94.30
2018-10-05T07:11:30.899Z,93.30
2018-10-05T07:14:01.378Z,94.00
2018-10-05T07:16:47.296Z,92.90
2018-10-05T07:19:19.195Z,92.60
2018-10-05T07:21:50.249Z,92.50
2018-10-05T07:24:21.205Z,92.70
2018-10-05T07:26:52.222Z,93.00
2018-10-05T07:29:25.772Z,92.90
2018-10-05T07:31:56.609Z,92.30
2018-10-05T07:34:27.415Z,92.70
2018-10-05T07:36:59.395Z,92.30
2018-10-05T07:39:30.002Z,92.40
2018-10-05T07:42:02.144Z,91.50
2018-10-05T07:44:34.190Z,91.00
2018-10-05T07:47:08.547Z,90.40
2018-10-05T07:49:40.333Z,90.30
2018-10-05T07:52:11.641Z,89.50
2018-10-05T07:54:43.307Z,90.00
2018-10-05T07:57:14.076Z,88.80
2018-10-05T07:59:45.393Z,90.90
2018-10-05T08:02:18.424Z,89.80
2018-10-05T08:04:49.654Z,88.10
2018-10-05T08:07:20.603Z,88.70
2018-10-05T08:09:53.038Z,89.40
2018-10-05T08:12:26.185Z,88.60
2018-10-05T08:14:57.929Z,89.20
2018-10-05T08:17:28.833Z,86.10
2018-10-05T08:20:03.393Z,89.70
2018-10-05T08:22:34.423Z,91.10
2018-10-05T08:25:05.425Z,89.60
2018-10-05T08:27:37.191Z,87.30
2018-10-05T08:30:09.309Z,88.50
2018-10-05T08:32:40.296Z,86.40
2018-10-05T08:35:12.307Z,86.10
2018-10-05T08:37:44.182Z,89.10
2018-10-05T08:40:16.047Z,86.70
2018-10-05T08:42:48.849Z,89.20
2018-10-05T08:45:22.640Z,86.80
2018-10-05T08:47:54.143Z,88.60
2018-10-05T08:50:26.825Z,86.70
2018-10-05T08:52:59.422Z,85.10
2018-10-05T08:55:32.977Z,87.00
2018-10-05T08:58:03.747Z,87.40
2018-10-05T09:00:36.765Z,87.00
2018-10-05T09:03:11.827Z,84.10
2018-10-05T09:05:44.318Z,82.20
2018-10-05T09:08:17.663Z,82.90
2018-10-05T09:10:49.675Z,82.10
2018-10-05T09:13:20.523Z,83.10
2018-10-05T09:15:52.705Z,84.60
2018-10-05T09:18:25.716Z,87.10
2018-10-05T09:20:58.845Z,85.60
2018-10-05T09:23:31.224Z,87.20
2018-10-05T09:26:02.722Z,85.60
2018-10-05T09:28:37.092Z,87.90
2018-10-05T09:31:11.327Z,86.90
2018-10-05T09:33:43.146Z,86.40
2018-10-05T09:36:13.963Z,81.10
2018-10-05T09:38:44.377Z,83.40
2018-10-05T09:41:15.997Z,84.70
2018-10-05T09:43:46.868Z,83.90
2018-10-05T09:46:18.307Z,86.80
2018-10-05T09:48:50.510Z,88.00
2018-10-05T09:51:21.320Z,90.00
2018-10-05T09:53:52.155Z,90.40
2018-10-05T09:56:23.739Z,90.10
2018-10-05T09:58:56.142Z,91.10
2018-10-05T10:01:33.980Z,91.10
2018-10-05T10:04:07.192Z,92.70
2018-10-05T10:06:37.925Z,90.30
2018-10-05T10:09:10.332Z,91.30
2018-10-05T10:11:52.600Z,90.00
2018-10-05T10:14:23.910Z,89.90
2018-10-05T10:16:55.147Z,90.50
2018-10-05T10:19:27.256Z,90.00
2018-10-05T10:21:57.905Z,90.30
2018-10-05T10:24:28.882Z,89.10
2018-10-05T10:26:59.397Z,90.00
2018-10-05T10:29:29.855Z,90.20
2018-10-05T10:32:00.391Z,90.00
2018-10-05T10:34:33.750Z,90.40
2018-10-05T10:37:04.739Z,89.40
2018-10-05T10:39:37.849Z,87.30
2018-10-05T10:42:08.469Z,82.20
2018-10-05T10:44:38.946Z,82.40
2018-10-05T10:47:21.601Z,83.80
2018-10-05T10:49:52.415Z,82.90
2018-10-05T10:52:25.556Z,82.80
2018-10-05T10:54:56.963Z,83.20
2018-10-05T10:57:27.627Z,85.20
2018-10-05T10:59:58.216Z,85.70
2018-10-05T11:02:28.838Z,83.80
2018-10-05T11:04:59.799Z,82.00
2018-10-05T11:07:31.301Z,79.90
2018-10-05T11:10:02.317Z,79.80
2018-10-05T11:12:33.425Z,75.90
2018-10-05T11:15:03.842Z,78.10
2018-10-05T11:17:35.411Z,79.00
2018-10-05T11:20:07.745Z,80.50
2018-10-05T11:22:38.485Z,78.30
2018-10-05T11:25:08.935Z,78.90
2018-10-05T11:27:40.480Z,81.30
2018-10-05T11:30:13.684Z,79.20
2018-10-05T11:32:44.211Z,79.90
2018-10-05T11:35:14.743Z,81.90
2018-10-05T11:37:45.153Z,81.90
2018-10-05T11:40:15.586Z,82.50
2018-10-05T11:42:46.140Z,84.10
2018-10-05T11:45:23.527Z,82.80
2018-10-05T11:47:53.989Z,82.40
2018-10-05T11:50:24.716Z,83.00
2018-10-05T11:52:55.218Z,81.10
2018-10-05T11:55:25.959Z,81.90
2018-10-05T11:57:56.526Z,82.00
2018-10-05T12:00:27.278Z,79.00
2018-10-05T12:02:57.969Z,78.40
2018-10-05T12:05:30.230Z,80.30
2018-10-05T12:08:03.990Z,80.80
2018-10-05T12:10:37.245Z,80.40
2018-10-05T12:13:07.828Z,82.00
2018-10-05T12:15:38.497Z,79.90
2018-10-05T12:18:09.329Z,79.50
2018-10-05T12:20:42.180Z,81.10
2018-10-05T12:23:12.507Z,80.30
2018-10-05T12:25:42.989Z,80.00
2018-10-05T12:28:13.619Z,80.50
2018-10-05T12:30:44.229Z,80.40
2018-10-05T12:33:15.146Z,81.60
2018-10-05T12:35:45.961Z,80.50
2018-10-05T12:38:16.911Z,83.60
2018-10-05T12:40:47.409Z,82.20
2018-10-05T12:43:20.205Z,82.00
2018-10-05T12:45:50.760Z,85.20
2018-10-05T12:48:21.365Z,83.70
2018-10-05T12:50:52.140Z,82.40
2018-10-05T12:53:22.468Z,82.20
2018-10-05T12:55:52.952Z,83.20
2018-10-05T12:58:23.831Z,85.70
2018-10-05T13:00:54.408Z,85.70
2018-10-05T13:03:25.350Z,85.60
2018-10-05T13:05:55.949Z,86.80
2018-10-05T13:08:26.429Z,83.70
2018-10-05T13:10:57.005Z,82.90
2018-10-05T13:13:27.592Z,81.40
2018-10-05T13:15:58.324Z,82.00
2018-10-05T13:18:29.101Z,83.30
2018-10-05T13:20:59.665Z,81.80
2018-10-05T13:23:41.111Z,82.10
2018-10-05T13:26:23.121Z,81.70
2018-10-05T13:29:16.697Z,81.60
2018-10-05T13:32:02.702Z,81.40
2018-10-05T13:34:48.470Z,81.30
2018-10-05T13:37:31.815Z,80.10
2018-10-05T13:40:15.861Z,79.30
2018-10-05T13:42:54.980Z,81.10
2018-10-05T13:45:34.420Z,81.70
2018-10-05T13:48:19.998Z,80.80
2018-10-05T13:51:05.070Z,81.60
2018-10-05T13:53:49.838Z,80.30
2018-10-05T13:56:39.513Z,80.30
2018-10-05T13:59:23.661Z,82.90
2018-10-05T14:02:06.684Z,86.10
2018-10-05T14:04:55.645Z,82.20
2018-10-05T14:07:44.761Z,82.20
2018-10-05T14:10:28.509Z,82.50
2018-10-05T14:13:08.225Z,81.80
2018-10-05T14:15:47.079Z,81.50
2018-10-05T14:18:29.386Z,80.90
2018-10-05T14:21:08.762Z,81.20
2018-10-05T14:23:45.129Z,80.90
2018-10-05T14:26:31.941Z,80.50
2018-10-05T14:29:13.392Z,79.20
2018-10-05T14:31:54.654Z,81.10
2018-10-05T14:34:38.237Z,80.50
2018-10-05T14:37:21.203Z,82.40
2018-10-05T14:40:08.453Z,79.50
2018-10-05T14:42:52.009Z,79.20
2018-10-05T14:45:37.603Z,80.30
2018-10-05T14:48:21.006Z,80.70
2018-10-05T14:51:12.152Z,79.90
2018-10-05T14:53:55.756Z,79.90
2018-10-05T14:56:39.393Z,81.00
2018-10-05T14:59:25.006Z,80.70
2018-10-05T15:02:13.764Z,81.40
2018-10-05T15:05:01.701Z,81.10
2018-10-05T15:07:44.119Z,82.40
2018-10-05T15:10:34.634Z,83.10
2018-10-05T15:13:35.556Z,82.90
2018-10-05T15:16:18.866Z,83.00
2018-10-05T15:19:02.502Z,82.50
2018-10-05T15:21:52.985Z,83.70
2018-10-05T15:24:44.628Z,84.90
2018-10-05T15:27:32.065Z,84.90
2018-10-05T15:30:13.653Z,84.20
2018-10-05T15:32:59.035Z,84.50
2018-10-05T15:35:54.948Z,84.10
2018-10-05T15:38:33.119Z,84.90
2018-10-05T15:41:14.645Z,86.70
2018-10-05T15:43:53.479Z,88.30
2018-10-05T15:47:11.118Z,87.30
2018-10-05T15:49:56.402Z,88.40
2018-10-05T15:52:36.860Z,90.20
2018-10-05T15:55:18.025Z,90.80
2018-10-05T15:57:59.426Z,91.20
2018-10-05T16:00:55.030Z,91.50
2018-10-05T16:03:52.659Z,92.60
2018-10-05T16:06:44.447Z,94.50
2018-10-05T16:09:39.258Z,98.20
2018-10-05T16:12:30.320Z,98.80
2018-10-05T16:15:16.453Z,99.00
2018-10-05T16:17:58.329Z,99.90
2018-10-05T16:20:45.346Z,99.90
2018-10-05T16:23:26.010Z,99.90
2018-10-05T16:26:19.490Z,99.90
2018-10-05T16:29:08.030Z,99.90
2018-10-05T16:31:55.874Z,99.90
2018-10-05T16:34:43.704Z,99.90
2018-10-05T16:37:27.004Z,99.90
2018-10-05T16:40:09.746Z,99.90
2018-10-05T16:42:52.772Z,99.90
2018-10-05T16:45:36.595Z,99.90
2018-10-05T16:48:32.132Z,99.90
2018-10-05T16:51:24.775Z,99.90
2018-10-05T16:54:11.910Z,99.90
2018-10-05T16:57:02.540Z,99.90
2018-10-05T16:59:50.942Z,99.90
2018-10-05T17:05:35.010Z,99.90
2018-10-05T17:08:20.511Z,99.90
2018-10-05T17:11:07.515Z,99.90
2018-10-05T17:16:41.641Z,99.90
2018-10-05T17:19:20.056Z,99.90
2018-10-05T17:22:02.644Z,99.90
2018-10-05T17:24:39.751Z,99.90
2018-10-05T17:27:24.645Z,99.90
2018-10-05T17:30:09.559Z,99.90
2018-10-05T17:32:47.080Z,99.90
2018-10-05T17:35:35.458Z,99.90
2018-10-05T17:38:21.199Z,99.90
2018-10-05T17:41:05.772Z,99.90
2018-10-05T17:43:46.936Z,99.90
2018-10-05T17:46:45.508Z,99.90
2018-10-05T17:49:31.429Z,99.90
2018-10-05T17:52:14.399Z,99.90
2018-10-05T17:54:55.938Z,99.90
2018-10-05T17:57:38.449Z,99.90
2018-10-05T18:00:18.540Z,99.90
2018-10-05T18:02:56.223Z,99.90
2018-10-05T18:05:39.876Z,99.90
2018-10-05T18:08:23.113Z,99.90
2018-10-05T18:11:04.079Z,99.90
2018-10-05T18:13:41.062Z,99.90
2018-10-05T18:16:24.553Z,99.90
2018-10-05T18:19:15.301Z,99.90
2018-10-05T18:21:54.061Z,99.90
2018-10-05T18:24:37.718Z,99.90
2018-10-05T18:27:21.866Z,99.90
2018-10-05T18:29:59.052Z,99.90
2018-10-05T18:32:36.039Z,99.90
2018-10-05T18:35:13.645Z,99.90
2018-10-05T18:37:53.832Z,99.90
2018-10-05T18:40:38.611Z,99.90
2018-10-05T18:43:12.716Z,99.90
2018-10-05T18:45:48.464Z,99.90
2018-10-05T18:48:30.523Z,99.90
2018-10-05T18:51:09.405Z,99.90
2018-10-05T18:53:46.555Z,99.90
2018-10-05T18:56:41.587Z,99.90
2018-10-05T18:59:18.255Z,99.90
2018-10-05T19:01:58.821Z,99.90
2018-10-05T19:04:38.613Z,99.90
2018-10-05T19:07:16.856Z,99.90
2018-10-05T19:09:52.655Z,99.90
2018-10-05T19:12:28.287Z,99.90
2018-10-05T19:15:06.950Z,99.90
2018-10-05T19:17:43.621Z,99.90
2018-10-05T19:20:21.481Z,99.90
2018-10-05T19:23:01.372Z,99.90
2018-10-05T19:25:41.393Z,99.90
2018-10-05T19:28:22.008Z,99.90
2018-10-05T19:31:00.978Z,99.90
2018-10-05T19:33:41.238Z,99.90
2018-10-05T19:36:23.403Z,99.90
2018-10-05T19:39:01.041Z,99.90
2018-10-05T19:41:36.895Z,99.90
2018-10-05T19:44:13.399Z,99.90
2018-10-05T19:46:51.572Z,99.90
2018-10-05T19:49:35.520Z,99.90
2018-10-05T19:52:16.595Z,99.90
2018-10-05T19:54:47.823Z,99.90
2018-10-05T19:57:17.999Z,99.90
2018-10-05T19:59:48.881Z,99.90
2018-10-05T20:02:19.815Z,99.90
2018-10-05T20:04:50.485Z,99.90
2018-10-05T20:07:20.630Z,99.90
2018-10-05T20:09:50.790Z,99.90
2018-10-05T20:12:20.891Z,99.90
2018-10-05T20:14:50.977Z,99.90
2018-10-05T20:17:21.078Z,99.90
2018-10-05T20:19:51.216Z,99.90
2018-10-05T20:22:21.309Z,99.90
2018-10-05T20:24:51.431Z,99.90
2018-10-05T20:27:22.460Z,99.90
2018-10-05T20:29:52.659Z,99.90
2018-10-05T20:32:23.019Z,99.90
2018-10-05T20:34:53.169Z,99.90
2018-10-05T20:37:23.554Z,99.90
2018-10-05T20:39:53.465Z,99.90
2018-10-05T20:42:23.571Z,99.90
2018-10-05T20:44:53.719Z,99.90
2018-10-05T20:47:23.812Z,99.90
2018-10-05T20:49:53.924Z,99.90
2018-10-05T20:52:24.118Z,99.90
2018-10-05T20:54:54.233Z,99.90
2018-10-05T20:57:24.337Z,99.90
2018-10-05T20:59:54.441Z,99.90
2018-10-05T21:02:24.568Z,99.90
2018-10-05T21:04:54.689Z,99.90
2018-10-05T21:07:25.514Z,99.90
2018-10-05T21:09:55.633Z,99.90
2018-10-05T21:12:25.749Z,99.90
2018-10-05T21:14:55.999Z,99.90
2018-10-05T21:17:26.061Z,99.90
2018-10-05T21:19:56.345Z,99.90
2018-10-05T21:22:26.516Z,99.90
2018-10-05T21:24:56.662Z,99.90
2018-10-05T21:27:26.781Z,99.90
2018-10-05T21:29:56.976Z,99.90
2018-10-05T21:32:31.932Z,99.90
2018-10-05T21:35:02.081Z,99.90
2018-10-05T21:37:32.623Z,99.90
2018-10-05T21:40:02.809Z,99.90
2018-10-05T21:42:33.036Z,99.90
2018-10-05T21:45:03.225Z,99.90
2018-10-05T21:47:33.311Z,99.90
2018-10-05T21:50:03.438Z,99.90
2018-10-05T21:52:33.898Z,99.90
2018-10-05T21:55:03.994Z,99.90
2018-10-05T21:57:34.110Z,99.90
2018-10-05T22:00:05.253Z,99.90
2018-10-05T22:02:37.282Z,99.90
2018-10-05T22:05:08.030Z,99.90
2018-10-05T22:07:38.161Z,99.90
2018-10-05T22:10:08.300Z,99.90
2018-10-05T22:12:39.348Z,99.90
2018-10-05T22:15:09.805Z,99.90
2018-10-05T22:17:40.614Z,99.90
2018-10-05T22:20:11.841Z,99.90
2018-10-05T22:22:42.323Z,99.90
2018-10-05T22:25:12.453Z,99.90
2018-10-05T22:27:42.566Z,99.90
2018-10-05T22:30:12.701Z,99.90
2018-10-05T22:32:42.786Z,99.90
2018-10-05T22:35:12.968Z,99.90
2018-10-05T22:37:43.050Z,99.90
2018-10-05T22:40:13.188Z,99.90
2018-10-05T22:42:43.297Z,99.90
2018-10-05T22:45:13.453Z,99.90
2018-10-05T22:47:43.568Z,99.90
2018-10-05T22:50:13.690Z,99.90
2018-10-05T22:52:43.796Z,99.90
2018-10-05T22:55:13.893Z,99.90
2018-10-05T22:57:44.029Z,99.90
2018-10-05T23:00:14.212Z,99.90
2018-10-05T23:02:44.308Z,99.90
2018-10-05T23:05:14.445Z,99.90
2018-10-05T23:07:44.577Z,99.90
2018-10-05T23:10:14.693Z,99.90
2018-10-05T23:12:44.821Z,99.90
2018-10-05T23:15:14.983Z,99.90
2018-10-05T23:17:45.120Z,99.90
2018-10-05T23:20:15.241Z,99.90
2018-10-05T23:22:45.384Z,99.90
2018-10-05T23:25:15.517Z,99.90
2018-10-05T23:27:45.697Z,99.90
2018-10-05T23:30:15.825Z,99.90
2018-10-05T23:32:45.924Z,99.90
2018-10-05T23:35:16.101Z,99.90
2018-10-05T23:37:46.241Z,99.90
2018-10-05T23:40:16.369Z,99.90
2018-10-05T23:42:46.512Z,99.90
2018-10-05T23:45:16.687Z,99.90
2018-10-05T23:47:46.945Z,99.90
2018-10-05T23:50:17.428Z,99.90
2018-10-05T23:52:48.617Z,99.90
2018-10-05T23:55:19.009Z,99.90
2018-10-05T23:57:49.424Z,99.90
